sensor_id;sensor_type;location;lat;lon;timestamp;P1;durP1;ratioP1;P2;durP2;ratioP2
54909;SDS011;63189;51.240;9.964;2023-03-23T00:15:42;1.92;;;0.95;;
54909;SDS011;63189;51.240;9.964;2023-03-23T00:18:09;0.93;;;0.63;;
54909;SDS011;63189;51.240;9.964;2023-03-23T00:20:45;3.38;;;0.95;;
54909;SDS011;63189;51.240;9.964;2023-03-23T00:23:14;2.63;;;0.60;;
54909;SDS011;63189;51.240;9.964;2023-03-23T00:25:44;1.20;;;0.60;;
54909;SDS011;63189;51.240;9.964;2023-03-23T00:28:10;1.38;;;0.82;;
54909;SDS011;63189;51.240;9.964;2023-03-23T00:30:37;1.73;;;0.60;;
54909;SDS011;63189;51.240;9.964;2023-03-23T00:33:03;4.10;;;0.80;;
54909;SDS011;63189;51.240;9.964;2023-03-23T00:35:29;1.98;;;0.77;;
54909;SDS011;63189;51.240;9.964;2023-03-23T00:37:55;3.67;;;0.82;;
54909;SDS011;63189;51.240;9.964;2023-03-23T00:40:21;3.47;;;0.70;;
54909;SDS011;63189;51.240;9.964;2023-03-23T00:42:47;2.85;;;0.80;;
54909;SDS011;63189;51.240;9.964;2023-03-23T00:45:13;1.48;;;0.98;;
54909;SDS011;63189;51.240;9.964;2023-03-23T00:47:40;2.00;;;0.68;;
54909;SDS011;63189;51.240;9.964;2023-03-23T00:50:11;3.03;;;0.70;;
54909;SDS011;63189;51.240;9.964;2023-03-23T00:52:38;1.50;;;0.70;;
54909;SDS011;63189;51.240;9.964;2023-03-23T00:55:04;1.67;;;0.70;;
54909;SDS011;63189;51.240;9.964;2023-03-23T00:57:31;1.60;;;0.63;;
54909;SDS011;63189;51.240;9.964;2023-03-23T00:59:56;1.95;;;0.70;;
54909;SDS011;63189;51.240;9.964;2023-03-23T01:02:22;1.23;;;0.80;;
54909;SDS011;63189;51.240;9.964;2023-03-23T01:04:50;1.23;;;0.68;;
54909;SDS011;63189;51.240;9.964;2023-03-23T01:07:17;2.53;;;0.63;;
54909;SDS011;63189;51.240;9.964;2023-03-23T01:09:45;3.65;;;1.17;;
54909;SDS011;63189;51.240;9.964;2023-03-23T01:12:11;3.47;;;0.90;;
54909;SDS011;63189;51.240;9.964;2023-03-23T01:14:37;1.83;;;0.70;;
54909;SDS011;63189;51.240;9.964;2023-03-23T01:17:02;1.77;;;0.73;;
54909;SDS011;63189;51.240;9.964;2023-03-23T01:19:28;2.15;;;0.70;;
54909;SDS011;63189;51.240;9.964;2023-03-23T01:21:53;1.63;;;0.80;;
54909;SDS011;63189;51.240;9.964;2023-03-23T01:24:19;2.17;;;0.80;;
54909;SDS011;63189;51.240;9.964;2023-03-23T01:26:44;2.53;;;0.90;;
54909;SDS011;63189;51.240;9.964;2023-03-23T01:29:10;3.80;;;1.17;;
54909;SDS011;63189;51.240;9.964;2023-03-23T01:31:36;2.13;;;0.80;;
54909;SDS011;63189;51.240;9.964;2023-03-23T01:34:02;1.80;;;0.73;;
54909;SDS011;63189;51.240;9.964;2023-03-23T01:36:28;1.42;;;0.65;;
54909;SDS011;63189;51.240;9.964;2023-03-23T01:38:57;2.05;;;0.80;;
54909;SDS011;63189;51.240;9.964;2023-03-23T01:41:25;3.42;;;0.80;;
54909;SDS011;63189;51.240;9.964;2023-03-23T01:43:55;3.03;;;0.80;;
54909;SDS011;63189;51.240;9.964;2023-03-23T01:46:27;1.60;;;0.82;;
54909;SDS011;63189;51.240;9.964;2023-03-23T01:48:54;2.42;;;0.93;;
54909;SDS011;63189;51.240;9.964;2023-03-23T01:51:23;4.13;;;1.10;;
54909;SDS011;63189;51.240;9.964;2023-03-23T01:53:55;1.83;;;0.80;;
54909;SDS011;63189;51.240;9.964;2023-03-23T01:56:25;1.52;;;0.80;;
54909;SDS011;63189;51.240;9.964;2023-03-23T01:58:55;3.08;;;0.90;;
54909;SDS011;63189;51.240;9.964;2023-03-23T02:01:21;2.78;;;1.10;;
54909;SDS011;63189;51.240;9.964;2023-03-23T02:03:50;2.13;;;0.82;;
54909;SDS011;63189;51.240;9.964;2023-03-23T02:06:17;3.38;;;0.90;;
54909;SDS011;63189;51.240;9.964;2023-03-23T02:08:43;2.20;;;0.90;;
54909;SDS011;63189;51.240;9.964;2023-03-23T02:11:17;1.77;;;0.90;;
54909;SDS011;63189;51.240;9.964;2023-03-23T02:13:44;1.67;;;0.85;;
54909;SDS011;63189;51.240;9.964;2023-03-23T02:21:27;2.15;;;0.85;;
54909;SDS011;63189;51.240;9.964;2023-03-23T02:26:34;1.30;;;0.85;;
54909;SDS011;63189;51.240;9.964;2023-03-23T02:29:28;1.80;;;0.85;;
54909;SDS011;63189;51.240;9.964;2023-03-23T02:34:45;2.47;;;1.00;;
54909;SDS011;63189;51.240;9.964;2023-03-23T02:37:28;0.70;;;0.57;;
54909;SDS011;63189;51.240;9.964;2023-03-23T02:40:02;4.82;;;1.02;;
54909;SDS011;63189;51.240;9.964;2023-03-23T02:42:33;1.65;;;1.00;;
54909;SDS011;63189;51.240;9.964;2023-03-23T02:45:05;3.28;;;1.05;;
54909;SDS011;63189;51.240;9.964;2023-03-23T02:47:33;1.33;;;0.80;;
54909;SDS011;63189;51.240;9.964;2023-03-23T02:50:02;2.25;;;0.90;;
54909;SDS011;63189;51.240;9.964;2023-03-23T02:52:30;1.17;;;0.77;;
54909;SDS011;63189;51.240;9.964;2023-03-23T02:54:57;1.88;;;0.95;;
54909;SDS011;63189;51.240;9.964;2023-03-23T02:57:25;2.28;;;1.00;;
54909;SDS011;63189;51.240;9.964;2023-03-23T02:59:52;1.50;;;0.85;;
54909;SDS011;63189;51.240;9.964;2023-03-23T03:02:21;3.72;;;0.90;;
54909;SDS011;63189;51.240;9.964;2023-03-23T03:10:53;2.28;;;0.90;;
54909;SDS011;63189;51.240;9.964;2023-03-23T03:13:17;2.95;;;1.10;;
54909;SDS011;63189;51.240;9.964;2023-03-23T03:16:02;3.53;;;0.97;;
54909;SDS011;63189;51.240;9.964;2023-03-23T03:18:32;3.67;;;1.20;;
54909;SDS011;63189;51.240;9.964;2023-03-23T03:21:04;2.17;;;0.98;;
54909;SDS011;63189;51.240;9.964;2023-03-23T03:23:35;3.72;;;1.13;;
54909;SDS011;63189;51.240;9.964;2023-03-23T03:26:02;2.20;;;1.00;;
54909;SDS011;63189;51.240;9.964;2023-03-23T03:28:30;4.47;;;1.15;;
54909;SDS011;63189;51.240;9.964;2023-03-23T03:30:57;2.67;;;1.25;;
54909;SDS011;63189;51.240;9.964;2023-03-23T03:33:27;2.70;;;1.30;;
54909;SDS011;63189;51.240;9.964;2023-03-23T03:35:56;2.13;;;1.10;;
54909;SDS011;63189;51.240;9.964;2023-03-23T03:38:24;1.65;;;0.88;;
54909;SDS011;63189;51.240;9.964;2023-03-23T03:40:50;2.90;;;1.10;;
54909;SDS011;63189;51.240;9.964;2023-03-23T03:43:16;3.35;;;1.40;;
54909;SDS011;63189;51.240;9.964;2023-03-23T03:45:42;2.80;;;0.90;;
54909;SDS011;63189;51.240;9.964;2023-03-23T03:48:08;2.67;;;1.02;;
54909;SDS011;63189;51.240;9.964;2023-03-23T03:50:33;2.80;;;1.20;;
54909;SDS011;63189;51.240;9.964;2023-03-23T03:52:59;6.43;;;1.27;;
54909;SDS011;63189;51.240;9.964;2023-03-23T03:55:25;2.65;;;1.10;;
54909;SDS011;63189;51.240;9.964;2023-03-23T03:57:53;3.15;;;1.27;;
54909;SDS011;63189;51.240;9.964;2023-03-23T04:00:22;3.28;;;1.52;;
54909;SDS011;63189;51.240;9.964;2023-03-23T04:02:48;1.42;;;1.08;;
54909;SDS011;63189;51.240;9.964;2023-03-23T04:05:19;1.50;;;0.95;;
54909;SDS011;63189;51.240;9.964;2023-03-23T04:07:46;3.50;;;1.33;;
54909;SDS011;63189;51.240;9.964;2023-03-23T04:10:14;1.85;;;1.23;;
54909;SDS011;63189;51.240;9.964;2023-03-23T04:12:41;2.03;;;1.48;;
54909;SDS011;63189;51.240;9.964;2023-03-23T04:15:07;3.13;;;1.35;;
54909;SDS011;63189;51.240;9.964;2023-03-23T04:17:33;1.83;;;1.25;;
54909;SDS011;63189;51.240;9.964;2023-03-23T04:19:58;2.40;;;1.10;;
54909;SDS011;63189;51.240;9.964;2023-03-23T04:22:25;2.17;;;1.00;;
54909;SDS011;63189;51.240;9.964;2023-03-23T04:24:58;3.00;;;1.40;;
54909;SDS011;63189;51.240;9.964;2023-03-23T04:27:28;2.50;;;1.25;;
54909;SDS011;63189;51.240;9.964;2023-03-23T04:29:57;4.60;;;1.42;;
54909;SDS011;63189;51.240;9.964;2023-03-23T04:32:27;2.58;;;1.33;;
54909;SDS011;63189;51.240;9.964;2023-03-23T04:34:57;2.60;;;1.58;;
54909;SDS011;63189;51.240;9.964;2023-03-23T04:37:25;1.60;;;1.15;;
54909;SDS011;63189;51.240;9.964;2023-03-23T04:39:53;2.75;;;1.30;;
54909;SDS011;63189;51.240;9.964;2023-03-23T04:42:26;3.08;;;1.10;;
54909;SDS011;63189;51.240;9.964;2023-03-23T04:44:56;2.38;;;1.40;;
54909;SDS011;63189;51.240;9.964;2023-03-23T04:47:22;3.90;;;1.48;;
54909;SDS011;63189;51.240;9.964;2023-03-23T04:49:49;2.17;;;1.27;;
54909;SDS011;63189;51.240;9.964;2023-03-23T04:52:14;2.85;;;1.40;;
54909;SDS011;63189;51.240;9.964;2023-03-23T04:54:39;2.38;;;1.10;;
54909;SDS011;63189;51.240;9.964;2023-03-23T04:57:05;2.13;;;0.95;;
54909;SDS011;63189;51.240;9.964;2023-03-23T04:59:31;2.45;;;1.38;;
54909;SDS011;63189;51.240;9.964;2023-03-23T05:01:57;2.00;;;1.13;;
54909;SDS011;63189;51.240;9.964;2023-03-23T05:04:23;3.58;;;1.20;;
54909;SDS011;63189;51.240;9.964;2023-03-23T05:06:50;2.13;;;1.30;;
54909;SDS011;63189;51.240;9.964;2023-03-23T05:09:16;3.08;;;1.38;;
54909;SDS011;63189;51.240;9.964;2023-03-23T05:11:41;4.03;;;2.13;;
54909;SDS011;63189;51.240;9.964;2023-03-23T05:14:06;2.28;;;1.50;;
54909;SDS011;63189;51.240;9.964;2023-03-23T05:16:32;2.95;;;1.25;;
54909;SDS011;63189;51.240;9.964;2023-03-23T05:18:57;4.75;;;1.20;;
54909;SDS011;63189;51.240;9.964;2023-03-23T05:21:23;3.15;;;1.52;;
54909;SDS011;63189;51.240;9.964;2023-03-23T05:23:48;3.05;;;1.10;;
54909;SDS011;63189;51.240;9.964;2023-03-23T05:26:22;2.28;;;1.40;;
54909;SDS011;63189;51.240;9.964;2023-03-23T05:28:53;2.58;;;1.30;;
54909;SDS011;63189;51.240;9.964;2023-03-23T05:31:21;3.00;;;1.50;;
54909;SDS011;63189;51.240;9.964;2023-03-23T05:33:46;3.15;;;1.48;;
54909;SDS011;63189;51.240;9.964;2023-03-23T05:36:12;3.88;;;1.63;;
54909;SDS011;63189;51.240;9.964;2023-03-23T05:38:38;4.43;;;1.60;;
54909;SDS011;63189;51.240;9.964;2023-03-23T05:41:07;3.35;;;1.40;;
54909;SDS011;63189;51.240;9.964;2023-03-23T05:43:33;2.42;;;1.40;;
54909;SDS011;63189;51.240;9.964;2023-03-23T05:45:58;2.20;;;1.45;;
54909;SDS011;63189;51.240;9.964;2023-03-23T05:48:24;2.92;;;1.38;;
54909;SDS011;63189;51.240;9.964;2023-03-23T05:50:49;5.65;;;1.40;;
54909;SDS011;63189;51.240;9.964;2023-03-23T05:53:15;2.55;;;1.60;;
54909;SDS011;63189;51.240;9.964;2023-03-23T05:55:41;1.92;;;1.33;;
54909;SDS011;63189;51.240;9.964;2023-03-23T05:58:06;2.22;;;1.52;;
54909;SDS011;63189;51.240;9.964;2023-03-23T06:00:31;3.38;;;1.42;;
54909;SDS011;63189;51.240;9.964;2023-03-23T06:02:58;3.80;;;1.55;;
54909;SDS011;63189;51.240;9.964;2023-03-23T06:05:23;2.60;;;1.60;;
54909;SDS011;63189;51.240;9.964;2023-03-23T06:07:50;4.28;;;1.65;;
54909;SDS011;63189;51.240;9.964;2023-03-23T06:10:16;2.75;;;1.40;;
54909;SDS011;63189;51.240;9.964;2023-03-23T06:12:41;3.78;;;1.88;;
54909;SDS011;63189;51.240;9.964;2023-03-23T06:15:07;3.90;;;1.40;;
54909;SDS011;63189;51.240;9.964;2023-03-23T06:17:34;3.53;;;1.40;;
54909;SDS011;63189;51.240;9.964;2023-03-23T06:20:02;3.92;;;1.60;;
54909;SDS011;63189;51.240;9.964;2023-03-23T06:22:29;3.92;;;1.70;;
54909;SDS011;63189;51.240;9.964;2023-03-23T06:24:55;4.72;;;1.65;;
54909;SDS011;63189;51.240;9.964;2023-03-23T06:27:22;2.78;;;1.55;;
54909;SDS011;63189;51.240;9.964;2023-03-23T06:29:47;3.33;;;1.63;;
54909;SDS011;63189;51.240;9.964;2023-03-23T06:32:13;2.88;;;1.80;;
54909;SDS011;63189;51.240;9.964;2023-03-23T06:34:41;3.67;;;1.95;;
54909;SDS011;63189;51.240;9.964;2023-03-23T06:37:09;4.43;;;1.90;;
54909;SDS011;63189;51.240;9.964;2023-03-23T06:39:35;2.58;;;1.70;;
54909;SDS011;63189;51.240;9.964;2023-03-23T06:42:02;6.15;;;1.75;;
54909;SDS011;63189;51.240;9.964;2023-03-23T06:44:28;2.72;;;1.50;;
54909;SDS011;63189;51.240;9.964;2023-03-23T06:46:53;4.43;;;1.67;;
54909;SDS011;63189;51.240;9.964;2023-03-23T06:49:18;3.45;;;1.80;;
54909;SDS011;63189;51.240;9.964;2023-03-23T06:51:44;3.55;;;1.83;;
54909;SDS011;63189;51.240;9.964;2023-03-23T06:54:10;3.97;;;1.75;;
54909;SDS011;63189;51.240;9.964;2023-03-23T06:56:35;3.25;;;1.95;;
54909;SDS011;63189;51.240;9.964;2023-03-23T06:59:00;2.72;;;1.60;;
54909;SDS011;63189;51.240;9.964;2023-03-23T07:01:26;4.07;;;2.15;;
54909;SDS011;63189;51.240;9.964;2023-03-23T07:03:53;2.78;;;1.70;;
54909;SDS011;63189;51.240;9.964;2023-03-23T07:06:20;2.78;;;2.03;;
54909;SDS011;63189;51.240;9.964;2023-03-23T07:08:46;2.92;;;1.65;;
54909;SDS011;63189;51.240;9.964;2023-03-23T07:11:12;3.88;;;1.85;;
54909;SDS011;63189;51.240;9.964;2023-03-23T07:13:37;2.72;;;1.90;;
54909;SDS011;63189;51.240;9.964;2023-03-23T07:16:06;4.72;;;2.13;;
54909;SDS011;63189;51.240;9.964;2023-03-23T07:18:32;3.17;;;1.65;;
54909;SDS011;63189;51.240;9.964;2023-03-23T07:20:58;3.33;;;1.80;;
54909;SDS011;63189;51.240;9.964;2023-03-23T07:23:24;2.65;;;1.55;;
54909;SDS011;63189;51.240;9.964;2023-03-23T07:25:49;3.17;;;1.90;;
54909;SDS011;63189;51.240;9.964;2023-03-23T07:28:15;3.45;;;1.55;;
54909;SDS011;63189;51.240;9.964;2023-03-23T07:30:41;4.07;;;2.10;;
54909;SDS011;63189;51.240;9.964;2023-03-23T07:33:08;3.47;;;1.80;;
54909;SDS011;63189;51.240;9.964;2023-03-23T07:35:34;2.75;;;1.90;;
54909;SDS011;63189;51.240;9.964;2023-03-23T07:38:00;5.63;;;1.70;;
54909;SDS011;63189;51.240;9.964;2023-03-23T07:40:27;2.63;;;1.70;;
54909;SDS011;63189;51.240;9.964;2023-03-23T07:42:54;4.35;;;1.70;;
54909;SDS011;63189;51.240;9.964;2023-03-23T07:45:22;2.85;;;1.63;;
54909;SDS011;63189;51.240;9.964;2023-03-23T07:47:47;3.97;;;2.00;;
54909;SDS011;63189;51.240;9.964;2023-03-23T07:50:13;4.10;;;2.00;;
54909;SDS011;63189;51.240;9.964;2023-03-23T07:52:39;3.22;;;1.80;;
54909;SDS011;63189;51.240;9.964;2023-03-23T07:55:06;3.05;;;1.55;;
54909;SDS011;63189;51.240;9.964;2023-03-23T07:57:34;3.95;;;1.65;;
54909;SDS011;63189;51.240;9.964;2023-03-23T08:00:00;3.13;;;1.80;;
54909;SDS011;63189;51.240;9.964;2023-03-23T08:02:28;2.35;;;1.63;;
54909;SDS011;63189;51.240;9.964;2023-03-23T08:04:53;3.15;;;1.83;;
54909;SDS011;63189;51.240;9.964;2023-03-23T08:07:19;2.40;;;1.50;;
54909;SDS011;63189;51.240;9.964;2023-03-23T08:09:45;3.83;;;1.63;;
54909;SDS011;63189;51.240;9.964;2023-03-23T08:12:12;2.30;;;1.70;;
54909;SDS011;63189;51.240;9.964;2023-03-23T08:14:38;2.90;;;1.48;;
54909;SDS011;63189;51.240;9.964;2023-03-23T08:17:06;3.13;;;1.58;;
54909;SDS011;63189;51.240;9.964;2023-03-23T08:19:33;2.47;;;1.67;;
54909;SDS011;63189;51.240;9.964;2023-03-23T08:22:02;4.30;;;1.60;;
54909;SDS011;63189;51.240;9.964;2023-03-23T08:24:29;3.28;;;1.77;;
54909;SDS011;63189;51.240;9.964;2023-03-23T08:26:55;3.95;;;1.63;;
54909;SDS011;63189;51.240;9.964;2023-03-23T08:29:21;2.22;;;1.70;;
54909;SDS011;63189;51.240;9.964;2023-03-23T08:31:46;3.58;;;1.50;;
54909;SDS011;63189;51.240;9.964;2023-03-23T08:34:12;6.55;;;1.67;;
54909;SDS011;63189;51.240;9.964;2023-03-23T08:36:37;3.28;;;1.85;;
54909;SDS011;63189;51.240;9.964;2023-03-23T08:39:02;2.35;;;1.67;;
54909;SDS011;63189;51.240;9.964;2023-03-23T08:41:30;2.92;;;1.73;;
54909;SDS011;63189;51.240;9.964;2023-03-23T08:43:56;3.47;;;1.60;;
54909;SDS011;63189;51.240;9.964;2023-03-23T08:46:22;2.85;;;1.60;;
54909;SDS011;63189;51.240;9.964;2023-03-23T08:48:47;5.72;;;1.80;;
54909;SDS011;63189;51.240;9.964;2023-03-23T08:51:12;3.65;;;1.50;;
54909;SDS011;63189;51.240;9.964;2023-03-23T08:53:38;2.75;;;1.35;;
54909;SDS011;63189;51.240;9.964;2023-03-23T08:56:04;6.18;;;1.73;;
54909;SDS011;63189;51.240;9.964;2023-03-23T08:58:31;5.18;;;1.50;;
54909;SDS011;63189;51.240;9.964;2023-03-23T09:00:56;3.53;;;1.42;;
54909;SDS011;63189;51.240;9.964;2023-03-23T09:03:21;3.50;;;1.50;;
54909;SDS011;63189;51.240;9.964;2023-03-23T09:05:48;2.35;;;1.45;;
54909;SDS011;63189;51.240;9.964;2023-03-23T09:08:13;2.20;;;1.40;;
54909;SDS011;63189;51.240;9.964;2023-03-23T09:10:39;3.00;;;1.67;;
54909;SDS011;63189;51.240;9.964;2023-03-23T09:13:04;3.83;;;1.70;;
54909;SDS011;63189;51.240;9.964;2023-03-23T09:15:31;2.75;;;1.27;;
54909;SDS011;63189;51.240;9.964;2023-03-23T09:17:57;3.05;;;1.50;;
54909;SDS011;63189;51.240;9.964;2023-03-23T09:20:24;2.08;;;1.20;;
54909;SDS011;63189;51.240;9.964;2023-03-23T09:22:52;3.17;;;1.10;;
54909;SDS011;63189;51.240;9.964;2023-03-23T09:25:20;2.90;;;1.50;;
54909;SDS011;63189;51.240;9.964;2023-03-23T09:27:51;2.80;;;1.33;;
54909;SDS011;63189;51.240;9.964;2023-03-23T09:30:21;2.25;;;1.45;;
54909;SDS011;63189;51.240;9.964;2023-03-23T09:32:49;3.20;;;1.38;;
54909;SDS011;63189;51.240;9.964;2023-03-23T09:35:14;4.10;;;1.40;;
54909;SDS011;63189;51.240;9.964;2023-03-23T09:37:41;2.97;;;1.15;;
54909;SDS011;63189;51.240;9.964;2023-03-23T09:40:13;4.28;;;1.70;;
54909;SDS011;63189;51.240;9.964;2023-03-23T09:43:00;2.22;;;1.20;;
54909;SDS011;63189;51.240;9.964;2023-03-23T09:48:31;2.72;;;1.23;;
54909;SDS011;63189;51.240;9.964;2023-03-23T09:53:41;3.28;;;1.30;;
54909;SDS011;63189;51.240;9.964;2023-03-23T09:56:13;2.20;;;1.23;;
54909;SDS011;63189;51.240;9.964;2023-03-23T09:59:16;2.15;;;1.20;;
54909;SDS011;63189;51.240;9.964;2023-03-23T10:01:45;2.97;;;1.23;;
54909;SDS011;63189;51.240;9.964;2023-03-23T10:07:19;2.67;;;1.38;;
54909;SDS011;63189;51.240;9.964;2023-03-23T10:09:51;2.30;;;1.27;;
54909;SDS011;63189;51.240;9.964;2023-03-23T10:12:21;3.22;;;1.00;;
54909;SDS011;63189;51.240;9.964;2023-03-23T10:23:08;1.75;;;1.10;;
54909;SDS011;63189;51.240;9.964;2023-03-23T10:25:35;3.20;;;1.10;;
54909;SDS011;63189;51.240;9.964;2023-03-23T10:28:10;2.28;;;1.00;;
54909;SDS011;63189;51.240;9.964;2023-03-23T10:30:39;2.60;;;0.90;;
54909;SDS011;63189;51.240;9.964;2023-03-23T10:33:12;2.03;;;1.10;;
54909;SDS011;63189;51.240;9.964;2023-03-23T10:38:26;3.25;;;1.13;;
54909;SDS011;63189;51.240;9.964;2023-03-23T10:41:31;3.47;;;1.13;;
54909;SDS011;63189;51.240;9.964;2023-03-23T10:43:50;5.30;;;1.40;;
54909;SDS011;63189;51.240;9.964;2023-03-23T10:46:33;1.95;;;1.08;;
54909;SDS011;63189;51.240;9.964;2023-03-23T10:49:12;2.55;;;1.10;;
54909;SDS011;63189;51.240;9.964;2023-03-23T10:51:42;2.10;;;1.13;;
54909;SDS011;63189;51.240;9.964;2023-03-23T10:54:12;4.05;;;1.58;;
54909;SDS011;63189;51.240;9.964;2023-03-23T10:56:39;4.40;;;1.50;;
54909;SDS011;63189;51.240;9.964;2023-03-23T11:01:54;3.13;;;1.38;;
54909;SDS011;63189;51.240;9.964;2023-03-23T11:04:23;1.52;;;0.85;;
54909;SDS011;63189;51.240;9.964;2023-03-23T11:06:51;4.22;;;1.77;;
54909;SDS011;63189;51.240;9.964;2023-03-23T11:09:19;4.75;;;1.40;;
54909;SDS011;63189;51.240;9.964;2023-03-23T11:11:50;3.03;;;1.30;;
54909;SDS011;63189;51.240;9.964;2023-03-23T11:14:18;3.10;;;1.10;;
54909;SDS011;63189;51.240;9.964;2023-03-23T11:19:33;2.35;;;1.20;;
54909;SDS011;63189;51.240;9.964;2023-03-23T11:24:33;2.00;;;0.90;;
54909;SDS011;63189;51.240;9.964;2023-03-23T11:27:01;1.77;;;0.95;;
54909;SDS011;63189;51.240;9.964;2023-03-23T11:29:32;4.03;;;1.02;;
54909;SDS011;63189;51.240;9.964;2023-03-23T11:34:25;1.42;;;0.90;;
54909;SDS011;63189;51.240;9.964;2023-03-23T11:37:01;2.50;;;1.00;;
54909;SDS011;63189;51.240;9.964;2023-03-23T11:39:31;2.45;;;1.20;;
54909;SDS011;63189;51.240;9.964;2023-03-23T11:42:12;3.60;;;1.15;;
54909;SDS011;63189;51.240;9.964;2023-03-23T11:44:43;2.47;;;0.98;;
54909;SDS011;63189;51.240;9.964;2023-03-23T11:47:32;2.38;;;1.30;;
54909;SDS011;63189;51.240;9.964;2023-03-23T11:52:41;2.72;;;1.40;;
54909;SDS011;63189;51.240;9.964;2023-03-23T11:55:13;1.85;;;1.00;;
54909;SDS011;63189;51.240;9.964;2023-03-23T11:57:44;1.60;;;1.00;;
54909;SDS011;63189;51.240;9.964;2023-03-23T12:00:16;2.72;;;1.10;;
54909;SDS011;63189;51.240;9.964;2023-03-23T12:02:52;4.28;;;1.00;;
54909;SDS011;63189;51.240;9.964;2023-03-23T12:05:30;3.13;;;1.10;;
54909;SDS011;63189;51.240;9.964;2023-03-23T12:16:46;3.10;;;1.05;;
54909;SDS011;63189;51.240;9.964;2023-03-23T12:22:32;2.13;;;0.80;;
54909;SDS011;63189;51.240;9.964;2023-03-23T12:30:38;1.67;;;0.60;;
54909;SDS011;63189;51.240;9.964;2023-03-23T12:33:21;3.10;;;0.95;;
54909;SDS011;63189;51.240;9.964;2023-03-23T12:35:52;1.85;;;0.90;;
54909;SDS011;63189;51.240;9.964;2023-03-23T12:41:16;2.78;;;0.63;;
54909;SDS011;63189;51.240;9.964;2023-03-23T12:43:50;2.80;;;1.05;;
54909;SDS011;63189;51.240;9.964;2023-03-23T12:51:51;1.92;;;0.82;;
54909;SDS011;63189;51.240;9.964;2023-03-23T12:59:44;2.15;;;1.00;;
54909;SDS011;63189;51.240;9.964;2023-03-23T13:02:44;2.60;;;1.00;;
54909;SDS011;63189;51.240;9.964;2023-03-23T13:07:48;0.75;;;0.50;;
54909;SDS011;63189;51.240;9.964;2023-03-23T13:10:45;1.55;;;0.88;;
54909;SDS011;63189;51.240;9.964;2023-03-23T13:13:14;5.47;;;0.80;;
54909;SDS011;63189;51.240;9.964;2023-03-23T13:18:47;2.95;;;0.80;;
54909;SDS011;63189;51.240;9.964;2023-03-23T13:21:24;1.67;;;0.80;;
54909;SDS011;63189;51.240;9.964;2023-03-23T13:24:13;1.30;;;0.70;;
54909;SDS011;63189;51.240;9.964;2023-03-23T13:26:46;5.38;;;0.95;;
54909;SDS011;63189;51.240;9.964;2023-03-23T13:29:16;1.85;;;0.80;;
54909;SDS011;63189;51.240;9.964;2023-03-23T13:31:44;1.70;;;0.70;;
54909;SDS011;63189;51.240;9.964;2023-03-23T13:36:52;1.33;;;0.90;;
54909;SDS011;63189;51.240;9.964;2023-03-23T13:39:31;2.60;;;0.85;;
54909;SDS011;63189;51.240;9.964;2023-03-23T13:47:22;1.98;;;0.88;;
54909;SDS011;63189;51.240;9.964;2023-03-23T13:57:54;0.77;;;0.63;;
54909;SDS011;63189;51.240;9.964;2023-03-23T14:03:14;1.70;;;0.77;;
54909;SDS011;63189;51.240;9.964;2023-03-23T14:10:53;1.40;;;0.70;;
54909;SDS011;63189;51.240;9.964;2023-03-23T14:13:28;1.35;;;0.80;;
54909;SDS011;63189;51.240;9.964;2023-03-23T14:18:53;1.02;;;0.65;;
54909;SDS011;63189;51.240;9.964;2023-03-23T14:21:26;2.10;;;0.80;;
54909;SDS011;63189;51.240;9.964;2023-03-23T14:24:03;1.92;;;0.93;;
54909;SDS011;63189;51.240;9.964;2023-03-23T14:26:33;1.58;;;0.73;;
54909;SDS011;63189;51.240;9.964;2023-03-23T14:29:02;2.45;;;0.98;;
54909;SDS011;63189;51.240;9.964;2023-03-23T14:31:29;2.40;;;0.65;;
54909;SDS011;63189;51.240;9.964;2023-03-23T14:33:55;1.85;;;0.68;;
54909;SDS011;63189;51.240;9.964;2023-03-23T14:36:26;2.08;;;0.70;;
54909;SDS011;63189;51.240;9.964;2023-03-23T14:38:56;1.15;;;0.75;;
54909;SDS011;63189;51.240;9.964;2023-03-23T14:41:30;2.38;;;0.55;;
54909;SDS011;63189;51.240;9.964;2023-03-23T14:43:56;1.85;;;0.75;;
54909;SDS011;63189;51.240;9.964;2023-03-23T14:46:25;1.45;;;0.75;;
54909;SDS011;63189;51.240;9.964;2023-03-23T14:48:51;0.77;;;0.50;;
54909;SDS011;63189;51.240;9.964;2023-03-23T14:51:18;2.83;;;0.80;;
54909;SDS011;63189;51.240;9.964;2023-03-23T14:53:45;2.08;;;0.55;;
54909;SDS011;63189;51.240;9.964;2023-03-23T14:56:14;1.92;;;0.65;;
54909;SDS011;63189;51.240;9.964;2023-03-23T14:58:49;1.73;;;0.63;;
54909;SDS011;63189;51.240;9.964;2023-03-23T15:01:50;2.40;;;0.75;;
54909;SDS011;63189;51.240;9.964;2023-03-23T15:04:27;1.80;;;1.00;;
54909;SDS011;63189;51.240;9.964;2023-03-23T15:06:58;2.38;;;0.85;;
54909;SDS011;63189;51.240;9.964;2023-03-23T15:09:28;1.50;;;0.80;;
54909;SDS011;63189;51.240;9.964;2023-03-23T15:12:00;1.65;;;0.60;;
54909;SDS011;63189;51.240;9.964;2023-03-23T15:17:27;1.10;;;0.50;;
54909;SDS011;63189;51.240;9.964;2023-03-23T15:19:55;1.05;;;0.50;;
54909;SDS011;63189;51.240;9.964;2023-03-23T15:22:27;1.13;;;0.50;;
54909;SDS011;63189;51.240;9.964;2023-03-23T15:25:17;1.63;;;0.70;;
54909;SDS011;63189;51.240;9.964;2023-03-23T15:27:50;2.25;;;0.70;;
54909;SDS011;63189;51.240;9.964;2023-03-23T15:35:38;1.23;;;0.60;;
54909;SDS011;63189;51.240;9.964;2023-03-23T15:38:12;0.98;;;0.70;;
54909;SDS011;63189;51.240;9.964;2023-03-23T15:40:43;0.60;;;0.40;;
54909;SDS011;63189;51.240;9.964;2023-03-23T15:45:56;2.15;;;0.65;;
54909;SDS011;63189;51.240;9.964;2023-03-23T15:48:45;1.55;;;0.70;;
54909;SDS011;63189;51.240;9.964;2023-03-23T15:51:15;1.92;;;0.80;;
54909;SDS011;63189;51.240;9.964;2023-03-23T15:53:43;1.98;;;0.75;;
54909;SDS011;63189;51.240;9.964;2023-03-23T15:56:09;2.38;;;0.70;;
54909;SDS011;63189;51.240;9.964;2023-03-23T15:58:39;2.33;;;0.70;;
54909;SDS011;63189;51.240;9.964;2023-03-23T16:01:26;2.22;;;0.60;;
54909;SDS011;63189;51.240;9.964;2023-03-23T16:06:26;1.00;;;0.73;;
54909;SDS011;63189;51.240;9.964;2023-03-23T16:08:54;1.10;;;0.68;;
54909;SDS011;63189;51.240;9.964;2023-03-23T16:11:21;2.47;;;0.70;;
54909;SDS011;63189;51.240;9.964;2023-03-23T16:13:48;2.67;;;0.95;;
54909;SDS011;63189;51.240;9.964;2023-03-23T16:16:17;3.35;;;0.90;;
54909;SDS011;63189;51.240;9.964;2023-03-23T16:18:46;2.10;;;0.80;;
54909;SDS011;63189;51.240;9.964;2023-03-23T16:21:11;1.95;;;0.57;;
54909;SDS011;63189;51.240;9.964;2023-03-23T16:23:37;1.65;;;0.60;;
54909;SDS011;63189;51.240;9.964;2023-03-23T16:26:04;2.45;;;0.75;;
54909;SDS011;63189;51.240;9.964;2023-03-23T16:28:30;2.25;;;0.90;;
54909;SDS011;63189;51.240;9.964;2023-03-23T16:30:55;2.45;;;0.85;;
54909;SDS011;63189;51.240;9.964;2023-03-23T16:33:21;1.02;;;0.50;;
54909;SDS011;63189;51.240;9.964;2023-03-23T16:35:47;1.63;;;0.70;;
54909;SDS011;63189;51.240;9.964;2023-03-23T16:38:13;2.63;;;0.77;;
54909;SDS011;63189;51.240;9.964;2023-03-23T16:40:43;1.90;;;0.90;;
54909;SDS011;63189;51.240;9.964;2023-03-23T16:43:09;1.48;;;0.88;;
54909;SDS011;63189;51.240;9.964;2023-03-23T16:45:36;1.60;;;0.70;;
54909;SDS011;63189;51.240;9.964;2023-03-23T16:48:03;1.48;;;1.02;;
54909;SDS011;63189;51.240;9.964;2023-03-23T16:50:30;2.42;;;0.77;;
54909;SDS011;63189;51.240;9.964;2023-03-23T16:52:56;0.93;;;0.77;;
54909;SDS011;63189;51.240;9.964;2023-03-23T16:55:24;1.05;;;0.60;;
54909;SDS011;63189;51.240;9.964;2023-03-23T16:57:51;2.25;;;0.80;;
54909;SDS011;63189;51.240;9.964;2023-03-23T17:00:17;1.23;;;0.70;;
54909;SDS011;63189;51.240;9.964;2023-03-23T17:02:48;3.22;;;0.90;;
54909;SDS011;63189;51.240;9.964;2023-03-23T17:05:16;2.25;;;0.75;;
54909;SDS011;63189;51.240;9.964;2023-03-23T17:07:43;1.83;;;0.90;;
54909;SDS011;63189;51.240;9.964;2023-03-23T17:10:09;1.00;;;0.80;;
54909;SDS011;63189;51.240;9.964;2023-03-23T17:12:36;1.20;;;0.80;;
54909;SDS011;63189;51.240;9.964;2023-03-23T17:15:02;1.98;;;0.75;;
54909;SDS011;63189;51.240;9.964;2023-03-23T17:17:29;0.93;;;0.70;;
54909;SDS011;63189;51.240;9.964;2023-03-23T17:19:54;1.30;;;0.93;;